CLT TRACON Summary / KCLT TAF
CLT TRACON Summary:
Expect VFR conditions with SCT/BKN060-080 clouds and isolated light showers moving north into the TRACON by early afternoon. Surface winds will be north at 3-5kts and occasionally calm, becoming southeast at 3-7kts by 13-14z, increasing to 5-10kts this afternoon. Flight Hazards in the TRACON airspace outside convection: None expected, but LGT-MOD rime icing is expected between 140-FL280 over NC/SC through the period.

Updated:8/30/2015 6:13 AM
CLT Terminal Aerodrome Forecast:

FTUS42 KGSP 301442 AAA
TAFCLT
TAF AMD
KCLT 301442Z 3015/3112 08003KT P6SM VCSH SCT060 BKN080 OVC150
      TEMPO 3015/3018 6SM -SHRA BR BKN060 OVC150
     FM301800 10006KT P6SM -SHRA OVC060
     FM310200 13005KT 6SM -SHRA BR OVC030
     FM310400 15005KT 6SM -SHRA BR BKN015 PROB30 3104/3108 2SM SHRA
      BR BKN012 OVC020
     FM311000 03003KT 5SM BR BKN008=
CLT TRACON Area Remark:
None.
Convective Gate Forecast / Collaborative Convective Forecast Product / Vertical Wind Profile
Convective Gate Forecast
SIGMETS/ Southeast Radar & Satellite Loops (click on image to enlarge)

Southeast Radar Loop

 



USA.gov is the U.S. government's official web portal to all federal, state and local government web resources and services.